Paradise, Indiana
Current Conditions -  °F | °C
As of 11:54 PM on Sunday 23 Nov 2014 (Local Time) from KEVV Reporting Station
Overcast Overcast  
Wind Chill: 59°   Ceiling: 1800
Heat Index: 59°   Visibility: 10mi
Dew Point: 55°   Wind: 14mph
Humidity: 87%   Direction: 210°SSW
Pressure: 29.32"   Gusts: 23mph
Location:  37.9629°N, 87.3632°W
Report Text: KEVV 240554Z AUTO 21012G20KT 10SM BKN018 OVC023 15/13 A2932 RMK AO2 PK WND 22026/0503 SLP928 60036 T01500128 10150 20139 401500100 50004 $
Loading
Personal Weather Stations






























Interactive Weather Map New forecast layout! Learn more

10-Day Weather Forecast

Advertisements
Track Severe Weather on mobile